Terminal Aerodrome Forecast
Issued by NWS Goodland, KS

Home | Current Version | Previous Version | Text Only | Print | Product List | Glossary On
Versions: 1 2 3 4 5 6 7 8 9 10 11 12
584
FTUS43 KGLD 261120
TAFGLD
TAF
KGLD 261120Z 2612/2712 20011KT P6SM SKC
     FM261800 17016G24KT P6SM SKC
     FM270500 16016G24KT P6SM FEW250 WS020/17050KT
     FM271100 17011KT P6SM SCT200 WS020/19050KT=

USA.gov is the U.S. government's official web portal to all federal, state and local government web resources and services.